createdAt,value
2022-10-13T00:02:51.766Z,32.93
2022-10-13T00:07:59.783Z,33.80
2022-10-13T00:13:08.224Z,25.47
2022-10-13T00:18:16.860Z,26.70
2022-10-13T00:23:25.436Z,25.63
2022-10-13T00:28:33.459Z,23.00
2022-10-13T00:33:41.412Z,26.00
2022-10-13T00:38:49.374Z,24.07
2022-10-13T00:44:00.374Z,26.70
2022-10-13T00:49:10.227Z,21.13
2022-10-13T00:54:21.020Z,22.63
2022-10-13T00:59:29.628Z,25.93
2022-10-13T01:04:39.417Z,18.87
2022-10-13T01:09:49.557Z,24.23
2022-10-13T01:15:01.947Z,23.73
2022-10-13T01:20:13.519Z,29.87
2022-10-13T01:25:24.587Z,27.20
2022-10-13T01:30:35.571Z,27.67
2022-10-13T01:35:47.857Z,28.50
2022-10-13T01:46:14.687Z,35.33
2022-10-13T01:51:23.881Z,32.17
2022-10-13T01:56:32.759Z,40.50
2022-10-13T02:01:47.984Z,40.10
2022-10-13T02:07:13.281Z,41.83
2022-10-13T02:12:24.433Z,35.33
2022-10-13T02:17:32.307Z,37.10
2022-10-13T02:22:43.200Z,33.40
2022-10-13T02:27:51.173Z,40.43
2022-10-13T02:32:58.994Z,37.87
2022-10-13T02:38:07.017Z,37.50
2022-10-13T02:43:15.087Z,40.07
2022-10-13T02:48:23.146Z,39.47
2022-10-13T02:53:30.978Z,42.67
2022-10-13T02:58:38.959Z,45.60
2022-10-13T03:03:46.757Z,53.50
2022-10-13T03:08:55.141Z,45.53
2022-10-13T03:14:03.099Z,38.30
2022-10-13T03:19:11.226Z,44.17
2022-10-13T03:24:19.008Z,48.00
2022-10-13T03:29:27.037Z,49.63
2022-10-13T03:34:36.011Z,47.30
2022-10-13T03:39:43.952Z,46.60
2022-10-13T03:44:56.146Z,37.00
2022-10-13T03:50:01.385Z,39.80
2022-10-13T03:55:09.992Z,36.50
2022-10-13T04:00:18.580Z,46.43
2022-10-13T04:05:26.515Z,46.57
2022-10-13T04:10:34.435Z,38.67
2022-10-13T04:15:43.767Z,38.03
2022-10-13T04:20:51.688Z,42.43
2022-10-13T04:26:00.321Z,40.40
2022-10-13T04:31:08.211Z,49.87
2022-10-13T04:36:16.478Z,48.53
2022-10-13T04:41:31.009Z,42.27
2022-10-13T04:46:34.278Z,39.67
2022-10-13T04:51:43.615Z,47.10
2022-10-13T04:56:51.569Z,42.80
2022-10-13T05:01:59.460Z,42.47
2022-10-13T05:07:18.083Z,44.27
2022-10-13T05:12:17.435Z,44.70
2022-10-13T05:17:26.609Z,49.13
2022-10-13T05:22:34.466Z,44.83
2022-10-13T05:27:42.257Z,44.00
2022-10-13T05:32:53.901Z,54.60
2022-10-13T05:38:00.273Z,57.07
2022-10-13T05:43:08.193Z,64.63
2022-10-13T05:48:16.184Z,57.40
2022-10-13T05:53:24.862Z,60.57
2022-10-13T05:58:33.958Z,57.63
2022-10-13T06:03:42.343Z,62.27
2022-10-13T06:08:51.332Z,63.90
2022-10-13T06:13:59.171Z,64.63
2022-10-13T06:19:07.311Z,81.90
2022-10-13T06:24:15.329Z,66.57
2022-10-13T06:29:23.283Z,65.13
2022-10-13T06:34:31.379Z,61.50
2022-10-13T06:39:39.361Z,74.13
2022-10-13T06:44:47.254Z,68.57
2022-10-13T06:49:55.316Z,80.10
2022-10-13T06:55:03.521Z,67.27
2022-10-13T07:00:11.995Z,72.80
2022-10-13T07:05:20.149Z,74.57
2022-10-13T07:10:31.923Z,73.43
2022-10-13T07:15:41.315Z,63.03
2022-10-13T07:20:49.209Z,78.20
2022-10-13T07:25:58.158Z,70.73
2022-10-13T07:31:08.461Z,75.47
2022-10-13T07:36:16.529Z,73.80
2022-10-13T07:41:24.610Z,66.93
2022-10-13T07:46:32.479Z,58.07
2022-10-13T07:51:40.590Z,61.07
2022-10-13T07:56:48.538Z,52.97
2022-10-13T08:01:56.570Z,56.63
2022-10-13T08:07:06.470Z,49.17
2022-10-13T08:12:14.900Z,46.53
2022-10-13T08:17:23.711Z,47.60
2022-10-13T08:22:33.370Z,38.40
2022-10-13T08:27:51.152Z,41.83
2022-10-13T08:32:51.912Z,44.30
2022-10-13T08:37:59.945Z,38.30
2022-10-13T08:43:09.170Z,44.57
2022-10-13T08:48:20.182Z,31.47
2022-10-13T08:53:31.515Z,37.93
2022-10-13T08:58:41.340Z,35.00
2022-10-13T09:03:52.820Z,39.67
2022-10-13T09:09:03.632Z,26.87
2022-10-13T09:14:14.126Z,32.20
2022-10-13T09:19:25.648Z,22.70
2022-10-13T09:24:33.689Z,25.17
2022-10-13T09:29:42.926Z,22.00
2022-10-13T09:34:52.257Z,24.83
2022-10-13T09:40:03.477Z,23.73
2022-10-13T09:45:14.831Z,21.73
2022-10-13T09:50:25.660Z,26.50
2022-10-13T09:55:35.552Z,19.37
2022-10-13T10:00:43.591Z,27.17
2022-10-13T10:06:12.319Z,22.07
2022-10-13T10:11:22.992Z,17.33
2022-10-13T10:16:33.950Z,23.73
2022-10-13T10:27:00.063Z,17.93
2022-10-13T10:32:11.407Z,18.27
2022-10-13T10:37:25.192Z,16.13
2022-10-13T10:42:37.898Z,19.83
2022-10-13T10:47:47.480Z,18.27
2022-10-13T10:52:58.424Z,19.00
2022-10-13T11:03:31.487Z,15.48
2022-10-13T11:13:54.585Z,14.03
2022-10-13T11:24:19.589Z,12.07
2022-10-13T11:29:30.887Z,16.83
2022-10-13T11:34:38.760Z,12.53
2022-10-13T11:39:50.966Z,19.50
2022-10-13T11:45:01.751Z,21.87
2022-10-13T11:50:12.848Z,16.30
2022-10-13T11:55:24.901Z,16.97
2022-10-13T12:00:33.632Z,12.57
2022-10-13T12:05:43.368Z,12.93
2022-10-13T12:10:54.974Z,12.43
2022-10-13T12:16:06.408Z,11.53
2022-10-13T12:21:18.191Z,14.97
2022-10-13T12:26:26.752Z,16.53
2022-10-13T12:31:37.882Z,15.27
2022-10-13T12:36:47.362Z,12.67
2022-10-13T12:41:56.117Z,9.73
2022-10-13T12:47:04.528Z,15.00
2022-10-13T12:52:14.860Z,13.23
2022-10-13T12:57:26.396Z,9.03
2022-10-13T13:02:34.250Z,9.80
2022-10-13T13:07:42.695Z,10.73
2022-10-13T13:12:51.084Z,10.77
2022-10-13T13:18:02.627Z,7.83
2022-10-13T13:23:11.436Z,11.60
2022-10-13T13:28:21.503Z,13.53
2022-10-13T13:33:29.802Z,11.47
2022-10-13T13:38:37.826Z,14.83
2022-10-13T13:43:45.834Z,15.30
2022-10-13T13:48:53.817Z,12.87
2022-10-13T13:54:01.666Z,9.63
2022-10-13T13:59:10.318Z,15.23
2022-10-13T14:04:18.782Z,7.57
2022-10-13T14:09:26.725Z,9.50
2022-10-13T14:14:34.682Z,8.37
2022-10-13T14:19:43.184Z,10.27
2022-10-13T14:24:51.159Z,7.40
2022-10-13T14:29:59.545Z,12.53
2022-10-13T14:35:07.712Z,10.30
2022-10-13T14:40:15.638Z,12.90
2022-10-13T14:45:23.580Z,7.33
2022-10-13T14:50:31.624Z,12.03
2022-10-13T14:55:40.359Z,16.77
2022-10-13T15:00:48.493Z,8.27
2022-10-13T15:05:56.386Z,12.27
2022-10-13T15:11:05.792Z,13.23
2022-10-13T15:16:17.845Z,9.00
2022-10-13T15:21:25.867Z,14.13
2022-10-13T15:26:37.605Z,11.37
2022-10-13T15:31:46.752Z,13.40
2022-10-13T15:36:56.001Z,11.47
2022-10-13T15:42:04.724Z,13.23
2022-10-13T15:47:17.091Z,10.03
2022-10-13T15:52:22.741Z,12.40
2022-10-13T15:57:32.500Z,12.23
2022-10-13T16:02:42.118Z,14.47
2022-10-13T16:07:50.134Z,20.13
2022-10-13T16:12:59.208Z,21.40
2022-10-13T16:18:07.419Z,16.30
2022-10-13T16:23:15.474Z,22.03
2022-10-13T16:28:23.414Z,15.30
2022-10-13T16:33:31.316Z,21.13
2022-10-13T16:38:39.818Z,23.80
2022-10-13T16:43:49.069Z,21.13
2022-10-13T16:48:56.965Z,25.63
2022-10-13T16:54:05.587Z,22.73
2022-10-13T16:59:13.488Z,26.60
2022-10-13T17:04:22.389Z,23.87
2022-10-13T17:09:30.492Z,28.20
2022-10-13T17:14:38.810Z,33.00
2022-10-13T17:19:47.298Z,34.87
2022-10-13T17:24:55.768Z,40.70
2022-10-13T17:30:06.102Z,39.80
2022-10-13T17:35:21.541Z,35.10
2022-10-13T17:40:30.615Z,36.80
2022-10-13T17:45:39.645Z,40.77
2022-10-13T17:50:47.632Z,39.97
2022-10-13T17:56:00.343Z,40.47
2022-10-13T18:01:13.748Z,42.57
2022-10-13T18:06:22.507Z,42.27
2022-10-13T18:11:33.962Z,42.37
2022-10-13T18:16:43.439Z,42.10
2022-10-13T18:21:53.250Z,42.57
2022-10-13T18:27:02.131Z,46.80
2022-10-13T18:32:10.855Z,52.53
2022-10-13T18:37:19.340Z,42.17
2022-10-13T18:42:42.298Z,52.00
2022-10-13T18:47:52.373Z,44.73
2022-10-13T18:53:00.897Z,57.63
2022-10-13T18:58:13.477Z,44.37
2022-10-13T19:03:22.865Z,44.83
2022-10-13T19:08:31.774Z,63.00
2022-10-13T19:13:40.125Z,53.97
2022-10-13T19:18:49.014Z,49.63
2022-10-13T19:23:59.946Z,54.00
2022-10-13T19:29:10.131Z,48.47
2022-10-13T19:34:19.239Z,51.93
2022-10-13T19:39:27.837Z,59.77
2022-10-13T19:44:38.596Z,59.37
2022-10-13T19:49:47.763Z,66.93
2022-10-13T19:54:55.837Z,77.20
2022-10-13T20:00:09.506Z,71.30
2022-10-13T20:05:25.296Z,63.77
2022-10-13T20:10:32.038Z,69.67
2022-10-13T20:15:41.747Z,56.63
2022-10-13T20:20:49.846Z,66.90
2022-10-13T20:25:58.405Z,68.77
2022-10-13T20:31:07.086Z,67.10
2022-10-13T20:36:16.816Z,61.73
2022-10-13T20:41:27.711Z,57.30
2022-10-13T20:46:36.054Z,59.80
2022-10-13T20:51:44.068Z,62.37
2022-10-13T20:56:54.068Z,59.20
2022-10-13T21:02:03.224Z,58.07
2022-10-13T21:07:12.505Z,58.00
2022-10-13T21:12:22.587Z,55.93
2022-10-13T21:17:32.064Z,61.07
2022-10-13T21:22:40.607Z,61.67
2022-10-13T21:27:50.070Z,63.27
2022-10-13T21:32:59.677Z,64.23
2022-10-13T21:38:08.607Z,60.03
2022-10-13T21:43:17.441Z,61.70
2022-10-13T21:48:25.613Z,64.60
2022-10-13T21:53:33.606Z,54.20
2022-10-13T21:58:41.936Z,55.33
2022-10-13T22:03:51.399Z,56.80
2022-10-13T22:09:00.063Z,58.13
2022-10-13T22:14:08.188Z,51.47
2022-10-13T22:19:17.451Z,48.87
2022-10-13T22:24:25.494Z,56.20
2022-10-13T22:29:33.798Z,46.63
2022-10-13T22:34:41.689Z,54.90
2022-10-13T22:39:50.162Z,56.47
2022-10-13T22:44:58.220Z,50.73
2022-10-13T22:50:06.472Z,57.93
2022-10-13T22:55:14.709Z,50.13
2022-10-13T23:00:23.413Z,48.17
2022-10-13T23:05:31.404Z,58.50
2022-10-13T23:10:39.354Z,59.33
2022-10-13T23:15:48.754Z,58.07
2022-10-13T23:20:57.258Z,61.33
2022-10-13T23:26:06.332Z,63.77
2022-10-13T23:31:16.610Z,62.07
2022-10-13T23:36:26.478Z,67.37
2022-10-13T23:41:34.772Z,69.90
2022-10-13T23:46:42.628Z,68.20
2022-10-13T23:51:50.802Z,66.87
2022-10-13T23:56:59.431Z,63.60
